ěÝzenÝ letovÚho provozu ╚eskÚ republiky
Letiste: LKTB Aktualizace: 27.11.2021 23:00:28  UTC
 METAR LKTB 27.11. 23:00 ...
METAR LKTB 272300Z 08004KT 7000 OVC013 01/M01 Q0998 NOSIG RMK REG QNH 0992=
 TAF LKTB 27.11. 17:00 ...
TAF LKTB 271700Z 2718/2900 07004KT 7000 BKN016      TEMPO 2718/2804 4000 -SN BR BKN011      PROB30 TEMPO 2718/2804 2000 -SN BR BKN006      BECMG 2804/2806 2000 -SN BR BKN006      TEMPO 2806/2816 1200 SN BKN004      PROB30 TEMPO 2806/2814 0600 +SN FZFG BKN002      BECMG 2816/2818 30006KT=